Garson, Canada
Current Conditions -  °F | °C
As of 4:00 AM on Friday 31 Oct 2014 (Local Time) from CYSB Reporting Station
Light Snow Light Snow  
Wind Chill: 18°   Ceiling: 700
Heat Index: 30°   Visibility: 2mi
Dew Point: 28°   Wind: 17mph
Humidity: 93%   Direction: 60°ENE
Pressure: 29.97"   Gusts: 23mph
Location:  46.57°N, 80.87°W
Report Text: CYSB 310800Z 06015G20KT 2SM -SN OVC007 M01/M02 A2997 RMK ST8 CIG VRB 5-9 SLP164
Loading
Personal Weather Stations






























Interactive Weather Map
Tropical Storm Tracking
New forecast layout! Learn more

10-Day Weather Forecast

Advertisements
Track Severe Weather on mobile